Time;durP1;ratioP1;P1;durP2;ratioP2;P2;SDS_P1;SDS_P2;PMS_P1;PMS_P2;Temp;Humidity;BMP_temperature;BMP_pressure;BME280_temperature;BME280_humidity;BME280_pressure;Samples;Min_cycle;Max_cycle;Signal;HPM_P1;HPM_P2
2021/12/15 15:14:42;;;;;;;2.25;0.90;;;14.80;82.10;;;;;;2299648;62;30203;-75
2021/12/15 15:18:30;;;;;;;3.15;1.50;;;14.80;82.40;;;;;;2291536;62;30091;-84
2021/12/15 15:20:30;;;;;;;0.82;0.63;;;14.80;83.10;;;;;;2279542;62;30183;-84
2021/12/15 15:22:59;;;;;;;0.75;0.70;;;14.80;86.00;;;;;;2283711;62;30123;-83
2021/12/15 15:25:30;;;;;;;4.40;1.15;;;14.80;87.20;;;;;;2283834;62;30370;-83
2021/12/15 15:27:58;;;;;;;3.42;1.23;;;14.80;87.60;;;;;;2283965;62;30158;-76
2021/12/15 15:30:27;;;;;;;2.33;1.08;;;14.80;88.20;;;;;;2276955;62;29951;-80
2021/12/15 15:33:17;;;;;;;1.33;0.80;;;14.90;88.40;;;;;;2283875;62;30274;-79
2021/12/15 15:35:48;;;;;;;1.92;0.98;;;14.90;86.90;;;;;;2277205;62;30231;-75
2021/12/15 15:38:16;;;;;;;2.38;0.90;;;15.00;89.40;;;;;;2284085;62;30287;-74
2021/12/15 15:40:47;;;;;;;2.70;1.13;;;15.00;89.50;;;;;;2283726;62;30161;-75
2021/12/15 15:43:17;;;;;;;0.50;0.50;;;15.00;89.50;;;;;;2276977;62;30235;-79
2021/12/15 15:45:44;;;;;;;1.42;0.98;;;15.00;89.20;;;;;;2283828;62;30058;-78
2021/12/15 15:48:14;;;;;;;2.97;1.10;;;15.00;89.00;;;;;;2291211;62;30008;-82
2021/12/15 15:50:41;;;;;;;2.22;0.80;;;15.00;88.60;;;;;;2291067;62;30197;-76
2021/12/15 15:53:08;;;;;;;3.03;0.70;;;15.00;88.20;;;;;;2276840;62;30403;-81
2021/12/15 15:55:34;;;;;;;1.88;0.88;;;15.00;87.90;;;;;;2283555;62;30160;-76
2021/12/15 15:58:05;;;;;;;2.47;0.95;;;15.00;87.70;;;;;;2290708;62;30246;-76
2021/12/15 16:00:35;;;;;;;1.90;1.20;;;15.10;87.40;;;;;;2276779;62;30255;-76
2021/12/15 16:03:01;;;;;;;1.35;0.80;;;15.00;87.00;;;;;;2276360;62;30451;-75
2021/12/15 16:05:27;;;;;;;1.40;0.80;;;15.10;86.80;;;;;;2290359;62;30302;-78
2021/12/15 16:07:53;;;;;;;2.65;0.98;;;15.10;86.60;;;;;;2282973;62;30336;-76
2021/12/15 16:10:22;;;;;;;1.23;1.00;;;15.00;86.40;;;;;;2290877;62;30218;-79
2021/12/15 16:12:47;;;;;;;0.88;0.80;;;15.00;86.10;;;;;;2290390;62;31117;-78
2021/12/15 16:15:13;;;;;;;6.18;1.40;;;15.10;86.00;;;;;;2288596;62;30415;-83
2021/12/15 16:17:44;;;;;;;0.80;0.80;;;15.10;86.00;;;;;;2282620;62;30335;-90
2021/12/15 16:20:23;;;;;;;4.88;1.00;;;15.20;85.70;;;;;;2275188;62;30093;-77
2021/12/15 16:23:00;;;;;;;3.03;1.30;;;15.30;85.20;;;;;;2285879;62;30241;-77
2021/12/15 16:25:26;;;;;;;2.20;1.00;;;15.30;85.00;;;;;;2284211;62;31521;-77
2021/12/15 16:27:54;;;;;;;4.88;0.80;;;15.40;84.80;;;;;;2284827;62;30886;-77
2021/12/15 16:30:25;;;;;;;1.75;1.20;;;15.50;84.70;;;;;;2285169;62;30024;-75
2021/12/15 16:32:53;;;;;;;3.40;1.20;;;15.50;84.50;;;;;;2284967;62;30151;-76
2021/12/15 16:35:22;;;;;;;1.50;1.40;;;15.60;84.40;;;;;;2277904;62;30138;-76
2021/12/15 16:37:49;;;;;;;1.20;1.20;;;15.60;84.20;;;;;;2285270;62;30724;-78
2021/12/15 16:40:15;;;;;;;1.48;1.38;;;15.70;84.10;;;;;;2285001;62;29926;-76
2021/12/15 16:42:58;;;;;;;1.70;1.35;;;15.80;84.00;;;;;;2284858;62;30061;-77
2021/12/15 16:45:24;;;;;;;1.80;1.40;;;15.80;83.20;;;;;;2285088;62;31662;-76
2021/12/15 16:47:51;;;;;;;1.95;1.40;;;15.90;83.70;;;;;;2277600;62;30201;-78
2021/12/15 16:50:17;;;;;;;1.77;1.50;;;15.90;83.50;;;;;;2277870;62;30444;-76
2021/12/15 16:52:45;;;;;;;1.80;1.40;;;15.90;83.40;;;;;;2284972;62;30844;-78
2021/12/15 16:55:12;;;;;;;1.20;1.20;;;16.00;83.30;;;;;;2284836;62;30358;-77
2021/12/15 16:57:40;;;;;;;1.40;1.40;;;16.00;83.20;;;;;;2285020;62;30283;-77
2021/12/15 17:00:12;;;;;;;1.48;1.38;;;16.00;83.00;;;;;;2284922;62;30215;-80
2021/12/15 17:02:40;;;;;;;1.55;1.48;;;16.00;82.90;;;;;;2285161;62;30518;-79
2021/12/15 17:05:12;;;;;;;1.70;1.60;;;16.00;83.00;;;;;;2277634;62;30645;-78
2021/12/15 17:07:41;;;;;;;2.63;1.63;;;16.00;82.80;;;;;;2285034;62;30191;-79
2021/12/15 17:10:14;;;;;;;1.52;1.42;;;16.10;82.80;;;;;;2277922;62;30315;-78
2021/12/15 17:12:43;;;;;;;1.52;1.42;;;16.10;82.60;;;;;;2284937;62;32084;-77
2021/12/15 17:18:18;;;;;;;1.45;1.38;;;16.10;82.30;;;;;;2285151;62;30150;-77
2021/12/15 17:20:45;;;;;;;2.50;1.67;;;16.10;82.10;;;;;;2285045;62;30011;-80
2021/12/15 17:23:13;;;;;;;1.45;1.17;;;16.10;82.40;;;;;;2284853;62;30861;-79
2021/12/15 17:25:45;;;;;;;1.45;1.35;;;16.10;82.30;;;;;;2284894;62;30737;-79
2021/12/15 17:28:24;;;;;;;1.33;1.20;;;16.10;82.40;;;;;;2277691;62;30202;-80
2021/12/15 17:30:51;;;;;;;1.67;1.13;;;16.00;82.00;;;;;;2284764;62;29979;-81
2021/12/15 17:33:41;;;;;;;1.58;1.20;;;16.10;82.50;;;;;;2277559;62;31889;-79
2021/12/15 17:36:25;;;;;;;1.25;1.15;;;16.10;81.90;;;;;;2284216;62;30537;-79
2021/12/15 17:39:06;;;;;;;1.92;1.40;;;16.10;81.80;;;;;;2277744;62;30161;-80
2021/12/15 17:41:42;;;;;;;2.17;1.10;;;16.10;81.90;;;;;;2277769;62;30080;-79
2021/12/15 17:44:24;;;;;;;1.38;1.23;;;16.00;81.90;;;;;;2284450;62;30151;-79
2021/12/15 17:46:55;;;;;;;4.28;2.08;;;16.00;81.80;;;;;;2284603;62;30318;-80
2021/12/15 17:49:24;;;;;;;6.85;2.63;;;16.00;82.10;;;;;;2284159;62;30031;-79
2021/12/15 17:52:03;;;;;;;14.38;5.80;;;16.00;82.20;;;;;;2276511;62;30090;-80
2021/12/15 17:54:32;;;;;;;64.20;22.92;;;15.90;82.20;;;;;;2274097;62;30215;-87
2021/12/15 17:56:59;;;;;;;45.42;15.52;;;15.90;82.30;;;;;;2284060;62;30273;-78
2021/12/15 17:59:25;;;;;;;49.15;18.83;;;15.90;82.40;;;;;;2284388;62;30379;-79
2021/12/15 18:01:51;;;;;;;46.38;17.02;;;15.90;82.40;;;;;;2270018;62;30198;-79
2021/12/15 18:04:18;;;;;;;44.70;16.17;;;16.00;82.50;;;;;;2276672;62;30124;-78
2021/12/15 18:06:46;;;;;;;36.30;15.07;;;16.00;82.50;;;;;;2277167;62;30152;-80
2021/12/15 18:09:12;;;;;;;38.22;14.75;;;16.10;82.50;;;;;;2284408;62;30160;-79
2021/12/15 18:11:38;;;;;;;31.50;12.80;;;16.00;82.40;;;;;;2284156;62;30141;-87
2021/12/15 18:14:04;;;;;;;28.45;11.35;;;16.10;82.50;;;;;;2284136;62;30149;-94
2021/12/15 18:16:38;;;;;;;29.25;10.52;;;16.20;82.30;;;;;;2274191;62;30832;-78
2021/12/15 18:19:05;;;;;;;23.98;10.05;;;16.30;82.10;;;;;;2281546;62;30228;-92
2021/12/15 18:21:34;;;;;;;23.80;8.57;;;16.40;82.00;;;;;;2268705;62;30091;-84
2021/12/15 18:24:01;;;;;;;22.00;8.77;;;16.60;81.80;;;;;;2276069;62;30117;-84
2021/12/15 18:26:28;;;;;;;16.33;7.57;;;16.70;81.60;;;;;;2275678;62;30496;-83
2021/12/15 18:28:56;;;;;;;19.35;6.68;;;16.70;81.50;;;;;;2276083;62;30641;-82
2021/12/15 18:31:22;;;;;;;15.90;5.95;;;16.80;81.50;;;;;;2276123;62;29940;-83
2021/12/15 18:33:49;;;;;;;12.15;5.25;;;16.90;81.60;;;;;;2276094;62;30143;-85
2021/12/15 18:36:15;;;;;;;11.93;4.95;;;17.00;81.50;;;;;;2276357;62;30449;-81
2021/12/15 18:38:42;;;;;;;11.82;4.70;;;17.00;81.50;;;;;;2282672;62;30079;-82
2021/12/15 18:41:18;;;;;;;12.55;4.30;;;17.10;81.40;;;;;;2271764;62;30246;-81
2021/12/15 18:43:45;;;;;;;9.45;4.03;;;17.20;81.30;;;;;;2276740;62;30043;-81
2021/12/15 18:46:15;;;;;;;10.52;3.85;;;17.30;81.20;;;;;;2284228;62;30605;-81
2021/12/15 18:48:50;;;;;;;7.30;3.78;;;17.40;81.00;;;;;;2284296;62;30096;-81
2021/12/15 18:51:21;;;;;;;7.30;3.40;;;17.40;80.90;;;;;;2284400;62;29956;-83
2021/12/15 18:54:07;;;;;;;7.18;3.33;;;17.50;80.80;;;;;;2275581;62;32339;-80
2021/12/15 18:56:39;;;;;;;6.88;3.50;;;17.50;80.60;;;;;;2276064;62;31385;-80
2021/12/15 18:59:06;;;;;;;5.28;2.75;;;17.50;80.50;;;;;;2268930;62;30013;-79
2021/12/15 19:01:39;;;;;;;5.88;3.15;;;17.60;80.30;;;;;;2268633;62;30247;-81
2021/12/15 19:04:06;;;;;;;6.15;2.95;;;17.60;80.10;;;;;;2283641;62;30722;-80
2021/12/15 19:06:32;;;;;;;5.50;2.45;;;17.60;80.20;;;;;;2276854;62;30180;-80
2021/12/15 19:08:57;;;;;;;4.68;2.50;;;17.60;80.10;;;;;;2284231;62;30346;-81
2021/12/15 19:11:24;;;;;;;3.72;2.08;;;17.60;80.10;;;;;;2284343;62;30163;-80
2021/12/15 19:13:50;;;;;;;4.32;2.60;;;17.60;80.00;;;;;;2269834;62;30170;-81
2021/12/15 19:16:16;;;;;;;4.68;2.20;;;17.60;80.00;;;;;;2284490;62;30346;-81
2021/12/15 19:18:42;;;;;;;6.78;2.42;;;17.60;79.90;;;;;;2284369;62;30126;-81
2021/12/15 19:21:12;;;;;;;4.03;1.95;;;17.60;79.80;;;;;;2276771;62;29905;-81
2021/12/15 19:23:38;;;;;;;3.20;1.67;;;17.60;79.80;;;;;;2277817;62;31903;-81
2021/12/15 19:26:05;;;;;;;4.88;2.20;;;17.60;79.80;;;;;;2276226;62;30176;-82
2021/12/15 19:28:31;;;;;;;4.15;2.20;;;17.60;79.80;;;;;;2275582;62;30075;-82
2021/12/15 19:30:57;;;;;;;3.60;2.20;;;17.60;79.80;;;;;;2268588;62;29943;-81
2021/12/15 19:33:23;;;;;;;4.57;2.03;;;17.60;79.70;;;;;;2275963;62;30164;-81
2021/12/15 19:35:49;;;;;;;3.88;2.03;;;17.60;79.70;;;;;;2268539;62;30556;-78
2021/12/15 19:38:16;;;;;;;3.45;2.00;;;17.60;79.70;;;;;;2275407;62;30235;-78
2021/12/15 19:40:42;;;;;;;3.88;2.08;;;17.60;79.70;;;;;;2275273;62;30087;-78
2021/12/15 19:43:08;;;;;;;3.75;1.70;;;17.50;79.70;;;;;;2267409;62;32212;-78
2021/12/15 19:45:34;;;;;;;10.60;2.45;;;17.50;79.70;;;;;;2275253;62;30744;-75
2021/12/15 19:48:02;;;;;;;2.58;1.80;;;17.50;79.80;;;;;;2282162;62;30661;-75
2021/12/15 19:50:28;;;;;;;2.17;1.55;;;17.50;79.70;;;;;;2275609;62;30280;-77
2021/12/15 19:52:54;;;;;;;3.55;1.75;;;17.60;79.60;;;;;;2282434;62;30966;-76
2021/12/15 19:55:21;;;;;;;3.85;1.70;;;17.60;79.50;;;;;;2278235;62;30618;-77
2021/12/15 19:57:49;;;;;;;2.10;1.50;;;17.60;79.50;;;;;;2260924;62;30105;-76
2021/12/15 20:00:19;;;;;;;5.22;1.75;;;17.60;79.40;;;;;;2268148;62;30064;-77
2021/12/15 20:02:46;;;;;;;2.08;1.38;;;17.70;79.30;;;;;;2275943;62;30826;-77
2021/12/15 20:05:21;;;;;;;3.05;1.58;;;17.70;79.30;;;;;;2268542;62;30258;-79
2021/12/15 20:07:48;;;;;;;3.80;1.70;;;17.70;79.10;;;;;;2280873;62;30468;-77
2021/12/15 20:10:14;;;;;;;4.32;1.70;;;17.70;79.10;;;;;;2284034;62;30143;-79
2021/12/15 20:12:48;;;;;;;;;;;17.70;79.00;;;;;;2282841;62;30409;-77
2021/12/15 20:15:14;;;;;;;2.80;1.50;;;17.70;78.30;;;;;;2282841;62;30219;-79
2021/12/15 20:17:40;;;;;;;1.75;1.30;;;17.70;79.00;;;;;;2275754;62;30199;-77
2021/12/15 20:20:08;;;;;;;1.67;1.45;;;17.70;78.90;;;;;;2276807;62;30228;-76
2021/12/15 20:22:42;;;;;;;2.15;1.40;;;17.70;78.80;;;;;;2284112;62;31012;-77
2021/12/15 20:25:09;;;;;;;2.90;1.38;;;17.70;78.70;;;;;;2280925;62;30630;-75
2021/12/15 20:27:44;;;;;;;4.07;1.45;;;17.70;78.70;;;;;;2276398;62;30039;-78
2021/12/15 20:30:11;;;;;;;3.63;1.27;;;17.70;78.70;;;;;;2268800;62;30269;-78
2021/12/15 20:32:37;;;;;;;1.30;1.20;;;17.70;78.60;;;;;;2275792;62;31002;-75
2021/12/15 20:35:04;;;;;;;1.58;1.25;;;17.70;78.70;;;;;;2275951;62;30104;-76
2021/12/15 20:37:31;;;;;;;1.98;1.38;;;17.70;78.60;;;;;;2261615;62;30127;-75
2021/12/15 20:39:57;;;;;;;2.15;1.48;;;17.70;78.50;;;;;;2261784;62;30097;-75
2021/12/15 20:42:23;;;;;;;2.47;1.73;;;17.70;78.50;;;;;;2268501;62;31832;-76
2021/12/15 20:44:49;;;;;;;4.35;1.83;;;17.50;78.50;;;;;;2275765;62;30748;-76
2021/12/15 20:47:16;;;;;;;2.67;1.40;;;17.60;78.80;;;;;;2268305;62;30346;-75
2021/12/15 20:49:42;;;;;;;1.77;1.30;;;17.60;78.70;;;;;;2268466;62;30354;-74
2021/12/15 20:52:09;;;;;;;3.17;1.50;;;17.60;78.70;;;;;;2275578;62;31495;-75
2021/12/15 20:54:44;;;;;;;1.55;1.38;;;17.60;78.60;;;;;;2269055;62;30208;-75
2021/12/15 20:57:10;;;;;;;2.17;1.30;;;17.60;78.60;;;;;;2268125;62;30576;-76
2021/12/15 20:59:37;;;;;;;2.70;1.55;;;17.60;78.50;;;;;;2268161;62;30325;-77
2021/12/15 21:02:04;;;;;;;1.30;1.20;;;17.70;78.50;;;;;;2269447;62;30927;-75
2021/12/15 21:04:30;;;;;;;2.22;1.33;;;17.60;78.40;;;;;;2276565;62;30126;-76
2021/12/15 21:06:59;;;;;;;2.55;1.40;;;17.70;78.50;;;;;;2283817;62;30200;-76
2021/12/15 21:09:40;;;;;;;2.22;1.30;;;17.70;78.40;;;;;;2276710;62;30176;-79
2021/12/15 21:12:06;;;;;;;3.10;1.35;;;17.70;78.30;;;;;;2283642;62;30085;-76
2021/12/15 21:14:37;;;;;;;1.70;1.15;;;17.70;78.30;;;;;;2283688;62;30125;-77
2021/12/15 21:17:06;;;;;;;2.20;1.27;;;17.70;78.10;;;;;;2283227;62;30805;-78
2021/12/15 21:19:33;;;;;;;1.80;1.27;;;17.60;78.10;;;;;;2275191;62;32054;-78
2021/12/15 21:21:59;;;;;;;1.65;1.30;;;17.60;78.20;;;;;;2267708;62;30174;-76
2021/12/15 21:24:27;;;;;;;1.60;1.50;;;17.60;78.40;;;;;;2275616;62;30104;-77
2021/12/15 21:26:53;;;;;;;1.15;1.08;;;17.60;78.40;;;;;;2283713;62;30067;-77
2021/12/15 21:29:29;;;;;;;2.95;1.25;;;17.60;78.40;;;;;;2276419;62;30702;-77
2021/12/15 21:31:56;;;;;;;1.00;1.00;;;17.60;79.00;;;;;;2276205;62;32037;-77
2021/12/15 21:34:25;;;;;;;1.27;1.17;;;17.60;78.30;;;;;;2283288;62;30501;-76
2021/12/15 21:36:51;;;;;;;0.90;0.90;;;17.60;78.30;;;;;;2269547;62;30416;-76
2021/12/15 21:39:17;;;;;;;2.20;1.23;;;17.60;78.30;;;;;;2283607;62;30219;-75
2021/12/15 21:41:43;;;;;;;1.27;1.15;;;17.60;78.30;;;;;;2268702;62;30833;-75
2021/12/15 21:44:09;;;;;;;1.08;1.05;;;17.60;78.20;;;;;;2283800;62;30293;-76
2021/12/15 21:46:37;;;;;;;1.20;1.10;;;17.60;78.20;;;;;;2283389;62;30081;-77
2021/12/15 21:49:06;;;;;;;1.50;1.10;;;17.50;78.00;;;;;;2276276;62;30441;-76
2021/12/15 21:51:32;;;;;;;1.50;1.15;;;17.50;78.20;;;;;;2269287;62;31088;-76
2021/12/15 21:54:00;;;;;;;2.50;1.27;;;17.50;78.30;;;;;;2276211;62;30123;-76
2021/12/15 21:56:26;;;;;;;1.73;1.30;;;17.50;78.40;;;;;;2275925;62;29941;-77
2021/12/15 21:58:53;;;;;;;1.58;1.42;;;17.50;78.40;;;;;;2283698;62;30066;-75
2021/12/15 22:01:19;;;;;;;1.20;1.10;;;17.50;78.30;;;;;;2283500;62;29960;-76
2021/12/15 22:03:47;;;;;;;1.45;1.10;;;17.50;78.30;;;;;;2269310;62;30801;-75
2021/12/15 22:06:14;;;;;;;1.20;1.10;;;17.50;78.20;;;;;;2283703;62;29874;-76
2021/12/15 22:08:48;;;;;;;1.35;1.25;;;17.60;78.20;;;;;;2269421;62;30279;-76
2021/12/15 22:11:14;;;;;;;1.17;1.08;;;17.60;78.20;;;;;;2275931;62;30257;-76
2021/12/15 22:13:41;;;;;;;1.10;1.10;;;17.60;78.10;;;;;;2275737;62;30652;-77
2021/12/15 22:16:08;;;;;;;1.27;1.02;;;17.60;78.10;;;;;;2275973;62;30079;-81
2021/12/15 22:18:40;;;;;;;1.92;1.20;;;17.50;78.00;;;;;;2275574;62;30251;-76
2021/12/15 22:21:10;;;;;;;2.55;1.20;;;17.50;78.10;;;;;;2269779;62;30080;-76
2021/12/15 22:23:42;;;;;;;2.15;1.00;;;17.50;78.20;;;;;;2282717;62;30742;-76
2021/12/15 22:26:10;;;;;;;2.35;1.30;;;17.50;78.10;;;;;;2275566;62;32488;-75
2021/12/15 22:28:38;;;;;;;1.25;1.15;;;17.50;78.10;;;;;;2282622;62;30330;-74
2021/12/15 22:31:04;;;;;;;1.40;1.30;;;17.50;78.00;;;;;;2282528;62;30139;-75
2021/12/15 22:33:31;;;;;;;2.10;1.40;;;17.50;78.00;;;;;;2277802;62;30387;-75
2021/12/15 22:35:57;;;;;;;1.60;1.50;;;17.60;78.00;;;;;;2275884;62;30247;-75
2021/12/15 22:38:23;;;;;;;1.40;1.30;;;17.60;77.90;;;;;;2283156;62;30564;-75
2021/12/15 22:40:51;;;;;;;1.85;1.17;;;17.60;77.80;;;;;;2282871;62;31440;-74
2021/12/15 22:43:17;;;;;;;1.40;1.30;;;17.50;77.80;;;;;;2282987;62;30258;-75
2021/12/15 22:45:43;;;;;;;1.45;1.27;;;17.50;78.00;;;;;;2282214;62;30303;-74
2021/12/15 22:48:09;;;;;;;1.70;1.30;;;17.50;78.00;;;;;;2283426;62;30287;-75
2021/12/15 22:50:35;;;;;;;1.30;1.20;;;17.50;78.00;;;;;;2276843;62;31026;-75
2021/12/15 22:53:01;;;;;;;2.05;1.50;;;17.50;77.90;;;;;;2274757;62;30598;-76
2021/12/15 22:55:27;;;;;;;1.90;1.60;;;17.50;77.90;;;;;;2267608;62;30362;-75
2021/12/15 22:57:56;;;;;;;1.17;1.10;;;17.50;77.90;;;;;;2277637;62;30229;-76
2021/12/15 23:00:32;;;;;;;1.90;1.42;;;17.50;77.80;;;;;;2283106;62;31023;-75
2021/12/15 23:02:58;;;;;;;1.58;1.40;;;17.60;77.80;;;;;;2283351;62;30412;-75
2021/12/15 23:05:24;;;;;;;1.77;1.20;;;17.50;77.70;;;;;;2281978;62;30310;-75
2021/12/15 23:07:51;;;;;;;1.60;1.50;;;17.50;77.60;;;;;;2275728;62;30235;-76
2021/12/15 23:10:17;;;;;;;16.58;8.10;;;17.50;77.70;;;;;;2275876;62;30161;-76
2021/12/15 23:12:46;;;;;;;15.57;6.70;;;17.50;77.90;;;;;;2279470;62;30416;-76
2021/12/15 23:15:24;;;;;;;11.90;6.10;;;17.40;77.80;;;;;;2283270;62;30141;-76
2021/12/15 23:17:57;;;;;;;9.90;5.30;;;17.50;77.80;;;;;;2275556;62;30213;-76
2021/12/15 23:20:25;;;;;;;10.50;4.53;;;17.50;77.90;;;;;;2275396;62;30113;-77
2021/12/15 23:22:52;;;;;;;8.32;3.67;;;17.50;77.80;;;;;;2282098;62;30243;-76
2021/12/15 23:25:19;;;;;;;8.25;4.03;;;17.50;77.80;;;;;;2274976;62;30113;-76
2021/12/15 23:27:50;;;;;;;7.57;3.30;;;17.50;77.80;;;;;;2267448;62;30578;-73
2021/12/15 23:30:18;;;;;;;6.30;3.50;;;17.50;77.70;;;;;;2274805;62;30216;-74
2021/12/15 23:32:46;;;;;;;5.45;3.80;;;17.50;77.60;;;;;;2274946;62;30553;-74
2021/12/15 23:37:59;;;;;;;5.75;3.33;;;17.40;77.80;;;;;;2275761;62;30341;-74
